createdAt,value
2019-06-20T00:01:53.763Z,39.90
2019-06-20T00:04:23.394Z,34.90
2019-06-20T00:06:53.073Z,38.03
2019-06-20T00:09:22.703Z,36.70
2019-06-20T00:11:52.947Z,34.73
2019-06-20T00:14:22.546Z,33.33
2019-06-20T00:16:52.532Z,39.90
2019-06-20T00:19:22.174Z,37.13
2019-06-20T00:21:51.805Z,36.40
2019-06-20T00:24:21.426Z,38.23
2019-06-20T00:26:51.126Z,37.23
2019-06-20T00:29:20.738Z,40.87
2019-06-20T00:31:51.634Z,42.47
2019-06-20T00:34:21.387Z,35.67
2019-06-20T00:36:51.445Z,34.50
2019-06-20T00:39:21.220Z,33.90
2019-06-20T00:41:50.886Z,38.97
2019-06-20T00:44:20.518Z,37.43
2019-06-20T00:46:50.130Z,40.97
2019-06-20T00:49:19.748Z,35.07
2019-06-20T00:51:49.358Z,45.30
2019-06-20T00:54:18.989Z,43.73
2019-06-20T00:56:48.615Z,39.43
2019-06-20T00:59:18.232Z,40.37
2019-06-20T01:01:47.854Z,42.47
2019-06-20T01:04:17.471Z,44.87
2019-06-20T01:06:47.100Z,41.90
2019-06-20T01:09:16.749Z,38.30
2019-06-20T01:11:46.616Z,43.33
2019-06-20T01:14:16.215Z,37.70
2019-06-20T01:16:45.823Z,49.57
2019-06-20T01:19:15.452Z,45.23
2019-06-20T01:21:45.086Z,39.17
2019-06-20T01:24:14.702Z,48.53
2019-06-20T01:26:44.600Z,42.63
2019-06-20T01:29:14.200Z,42.93
2019-06-20T01:31:43.832Z,44.63
2019-06-20T01:34:14.549Z,49.20
2019-06-20T01:36:44.211Z,47.00
2019-06-20T01:39:14.003Z,50.83
2019-06-20T01:41:43.650Z,45.57
2019-06-20T01:44:13.385Z,51.87
2019-06-20T01:46:43.009Z,52.07
2019-06-20T01:49:12.644Z,45.73
2019-06-20T01:51:42.370Z,46.73
2019-06-20T01:54:12.003Z,43.20
2019-06-20T01:56:41.606Z,41.70
2019-06-20T01:59:11.217Z,56.57
2019-06-20T02:01:40.914Z,44.97
2019-06-20T02:04:10.630Z,44.03
2019-06-20T02:06:40.336Z,48.17
2019-06-20T02:09:10.216Z,51.10
2019-06-20T02:11:40.247Z,45.40
2019-06-20T02:14:09.943Z,44.77
2019-06-20T02:16:39.646Z,48.70
2019-06-20T02:19:09.327Z,48.10
2019-06-20T02:21:38.972Z,44.90
2019-06-20T02:24:08.671Z,45.37
2019-06-20T02:26:38.298Z,43.80
2019-06-20T02:29:07.905Z,45.13
2019-06-20T02:31:37.540Z,40.70
2019-06-20T02:34:07.215Z,46.50
2019-06-20T02:36:36.844Z,43.97
2019-06-20T02:39:07.913Z,45.53
2019-06-20T02:41:37.988Z,47.63
2019-06-20T02:44:24.670Z,47.40
2019-06-20T02:46:39.338Z,46.40
2019-06-20T02:49:09.435Z,43.33
2019-06-20T02:51:39.700Z,47.23
2019-06-20T02:54:09.386Z,48.47
2019-06-20T02:56:39.110Z,47.57
2019-06-20T02:59:08.731Z,46.73
2019-06-20T03:01:38.586Z,41.43
2019-06-20T03:04:08.201Z,41.97
2019-06-20T03:06:38.250Z,42.87
2019-06-20T03:09:07.937Z,44.60
2019-06-20T03:11:37.596Z,44.43
2019-06-20T03:14:07.598Z,41.57
2019-06-20T03:16:37.284Z,41.60
2019-06-20T03:19:06.927Z,44.43
2019-06-20T03:21:36.534Z,44.57
2019-06-20T03:24:06.179Z,46.37
2019-06-20T03:26:35.892Z,45.87
2019-06-20T03:29:05.813Z,50.47
2019-06-20T03:31:35.422Z,45.00
2019-06-20T03:34:05.106Z,49.97
2019-06-20T03:36:34.758Z,43.20
2019-06-20T03:39:06.524Z,48.57
2019-06-20T03:41:36.134Z,41.30
2019-06-20T03:44:05.901Z,44.60
2019-06-20T03:46:35.558Z,51.57
2019-06-20T03:49:05.385Z,48.83
2019-06-20T03:51:34.999Z,46.07
2019-06-20T03:54:05.045Z,43.33
2019-06-20T03:56:35.954Z,45.87
2019-06-20T03:59:06.658Z,44.87
2019-06-20T04:01:36.279Z,37.87
2019-06-20T04:04:05.904Z,39.60
2019-06-20T04:06:35.575Z,37.77
2019-06-20T04:09:07.043Z,35.23
2019-06-20T04:11:36.751Z,33.90
2019-06-20T04:14:06.422Z,29.17
2019-06-20T04:16:36.074Z,34.27
2019-06-20T04:19:05.702Z,32.27
2019-06-20T04:21:35.300Z,27.77
2019-06-20T04:24:05.021Z,30.80
2019-06-20T04:26:34.697Z,32.93
2019-06-20T04:29:04.312Z,33.73
2019-06-20T04:31:33.936Z,30.20
2019-06-20T04:34:03.562Z,30.00
2019-06-20T04:36:33.295Z,29.27
2019-06-20T04:39:18.354Z,28.70
2019-06-20T04:41:34.602Z,32.83
2019-06-20T04:44:04.218Z,29.40
2019-06-20T04:46:42.687Z,30.70
2019-06-20T04:49:12.333Z,31.43
2019-06-20T04:51:42.168Z,29.33
2019-06-20T04:54:11.786Z,30.90
2019-06-20T04:56:41.455Z,30.93
2019-06-20T04:59:11.100Z,26.73
2019-06-20T05:01:40.710Z,24.53
2019-06-20T05:04:10.343Z,24.87
2019-06-20T05:06:41.995Z,27.20
2019-06-20T05:09:11.639Z,27.83
2019-06-20T05:11:41.295Z,28.60
2019-06-20T05:14:10.905Z,29.77
2019-06-20T05:16:40.520Z,27.87
2019-06-20T05:19:10.171Z,33.17
2019-06-20T05:21:39.820Z,29.93
2019-06-20T05:24:09.430Z,26.83
2019-06-20T05:26:39.060Z,29.73
2019-06-20T05:29:08.687Z,24.53
2019-06-20T05:31:38.315Z,29.47
2019-06-20T05:34:07.963Z,29.07
2019-06-20T05:36:37.596Z,23.30
2019-06-20T05:39:07.439Z,26.47
2019-06-20T05:41:37.090Z,30.87
2019-06-20T05:44:06.791Z,24.53
2019-06-20T05:46:37.495Z,20.40
2019-06-20T05:49:07.143Z,23.13
2019-06-20T05:51:39.657Z,26.53
2019-06-20T05:54:08.098Z,30.63
2019-06-20T05:56:37.923Z,21.13
2019-06-20T05:59:08.245Z,22.83
2019-06-20T06:01:38.239Z,21.13
2019-06-20T06:04:08.077Z,19.50
2019-06-20T06:06:38.686Z,15.60
2019-06-20T06:09:08.320Z,17.73
2019-06-20T06:11:37.945Z,20.63
2019-06-20T06:14:08.338Z,24.07
2019-06-20T06:16:37.959Z,17.87
2019-06-20T06:19:07.575Z,21.90
2019-06-20T06:21:37.240Z,17.77
2019-06-20T06:24:06.871Z,16.23
2019-06-20T06:26:36.641Z,14.87
2019-06-20T06:29:06.424Z,16.83
2019-06-20T06:31:36.107Z,16.90
2019-06-20T06:34:05.860Z,17.50
2019-06-20T06:36:35.521Z,14.00
2019-06-20T06:39:07.923Z,12.93
2019-06-20T06:41:38.062Z,12.33
2019-06-20T06:44:08.547Z,13.27
2019-06-20T06:46:45.822Z,10.17
2019-06-20T06:49:09.868Z,10.87
2019-06-20T06:51:39.586Z,11.90
2019-06-20T06:54:09.228Z,12.23
2019-06-20T06:56:38.877Z,11.60
2019-06-20T06:59:08.598Z,10.70
2019-06-20T07:01:38.322Z,15.63
2019-06-20T07:04:08.040Z,14.77
2019-06-20T07:06:37.979Z,15.27
2019-06-20T07:09:08.521Z,19.10
2019-06-20T07:11:38.136Z,19.63
2019-06-20T07:14:08.227Z,20.40
2019-06-20T07:16:37.881Z,29.73
2019-06-20T07:19:07.502Z,23.10
2019-06-20T07:21:37.216Z,25.53
2019-06-20T07:24:08.095Z,24.50
2019-06-20T07:26:38.040Z,26.23
2019-06-20T07:29:07.797Z,25.00
2019-06-20T07:31:37.427Z,32.33
2019-06-20T07:34:07.140Z,27.33
2019-06-20T07:36:36.772Z,25.40
2019-06-20T07:39:08.150Z,26.57
2019-06-20T07:41:37.854Z,25.43
2019-06-20T07:44:07.484Z,27.03
2019-06-20T07:46:38.662Z,27.17
2019-06-20T07:49:08.347Z,27.63
2019-06-20T07:51:38.003Z,29.90
2019-06-20T07:54:07.727Z,30.43
2019-06-20T07:56:37.348Z,26.97
2019-06-20T07:59:06.974Z,26.90
2019-06-20T08:01:36.683Z,32.33
2019-06-20T08:04:06.492Z,32.77
2019-06-20T08:06:36.141Z,31.13
2019-06-20T08:09:08.117Z,37.30
2019-06-20T08:11:37.823Z,34.90
2019-06-20T08:14:07.607Z,34.50
2019-06-20T08:16:37.373Z,33.63
2019-06-20T08:19:07.072Z,33.00
2019-06-20T08:21:36.783Z,31.57
2019-06-20T08:24:06.824Z,35.63
2019-06-20T08:26:36.516Z,28.23
2019-06-20T08:29:19.296Z,26.13
2019-06-20T08:31:37.563Z,27.90
2019-06-20T08:34:07.231Z,29.60
2019-06-20T08:36:36.854Z,26.33
2019-06-20T08:39:09.764Z,19.97
2019-06-20T08:41:39.500Z,21.07
2019-06-20T08:44:09.333Z,20.60
2019-06-20T08:46:39.031Z,23.10
2019-06-20T08:49:08.822Z,20.13
2019-06-20T08:51:38.447Z,18.97
2019-06-20T08:54:08.231Z,20.62
2019-06-20T08:56:37.966Z,17.90
2019-06-20T08:59:23.178Z,15.95
2019-06-20T09:01:39.440Z,15.23
2019-06-20T09:04:09.214Z,16.90
2019-06-20T09:06:38.946Z,18.92
2019-06-20T09:09:09.221Z,15.50
2019-06-20T09:11:38.922Z,12.87
2019-06-20T09:14:08.555Z,15.93
2019-06-20T09:16:38.289Z,11.63
2019-06-20T09:19:08.001Z,6.43
2019-06-20T09:21:37.686Z,5.27
2019-06-20T09:24:07.303Z,3.07
2019-06-20T09:26:36.943Z,2.23
2019-06-20T09:29:06.934Z,1.50
2019-06-20T09:31:36.549Z,0.80
2019-06-20T09:34:06.230Z,1.50
2019-06-20T09:36:35.999Z,1.40
2019-06-20T09:39:07.918Z,2.17
2019-06-20T09:41:37.630Z,2.00
2019-06-20T09:44:07.375Z,4.53
2019-06-20T09:46:37.088Z,2.83
2019-06-20T09:49:06.778Z,6.40
2019-06-20T09:51:36.473Z,8.00
2019-06-20T09:54:06.267Z,5.57
2019-06-20T09:56:36.118Z,3.73
2019-06-20T09:59:05.870Z,3.77
2019-06-20T10:01:35.533Z,1.83
2019-06-20T10:04:05.788Z,5.93
2019-06-20T10:06:35.498Z,4.57
2019-06-20T10:09:06.815Z,3.23
2019-06-20T10:11:36.628Z,6.92
2019-06-20T10:14:07.524Z,3.87
2019-06-20T10:16:45.930Z,6.15
2019-06-20T10:19:08.676Z,3.10
2019-06-20T10:21:38.415Z,10.40
2019-06-20T10:24:08.204Z,4.67
2019-06-20T10:26:37.895Z,4.47
2019-06-20T10:29:07.822Z,5.87
2019-06-20T10:31:37.526Z,3.47
2019-06-20T10:34:07.421Z,4.35
2019-06-20T10:36:37.147Z,4.90
2019-06-20T10:39:10.666Z,5.30
2019-06-20T10:41:40.503Z,5.57
2019-06-20T10:44:10.322Z,3.50
2019-06-20T10:46:40.007Z,4.37
2019-06-20T10:49:09.755Z,4.12
2019-06-20T10:51:45.812Z,6.57
2019-06-20T10:54:15.750Z,2.25
2019-06-20T10:56:45.795Z,3.93
2019-06-20T10:59:16.767Z,1.47
2019-06-20T11:01:46.740Z,3.07
2019-06-20T11:04:16.817Z,1.82
2019-06-20T11:06:47.640Z,2.60
2019-06-20T11:09:18.315Z,6.12
2019-06-20T11:11:49.073Z,1.95
2019-06-20T11:14:18.861Z,1.70
2019-06-20T11:16:49.276Z,3.08
2019-06-20T11:19:19.279Z,1.62
2019-06-20T11:21:49.330Z,1.35
2019-06-20T11:24:18.931Z,4.97
2019-06-20T11:26:48.554Z,2.05
2019-06-20T11:29:18.204Z,2.55
2019-06-20T11:31:49.495Z,3.25
2019-06-20T11:34:19.384Z,2.12
2019-06-20T11:36:49.042Z,2.35
2019-06-20T11:39:18.674Z,5.50
2019-06-20T11:41:48.545Z,3.52
2019-06-20T11:44:20.229Z,6.35
2019-06-20T11:46:49.960Z,4.90
2019-06-20T11:49:20.346Z,4.47
2019-06-20T11:51:49.946Z,5.25
2019-06-20T11:54:19.567Z,4.87
2019-06-20T11:56:49.194Z,4.12
2019-06-20T11:59:18.798Z,6.78
2019-06-20T12:01:49.088Z,2.05
2019-06-20T12:04:18.956Z,3.03
2019-06-20T12:06:49.301Z,3.10
2019-06-20T12:09:19.296Z,3.23
2019-06-20T12:11:48.996Z,2.53
2019-06-20T12:14:18.638Z,4.87
2019-06-20T12:16:48.710Z,7.53
2019-06-20T12:19:18.526Z,8.83
2019-06-20T12:21:49.090Z,6.47
2019-06-20T12:24:19.316Z,3.03
2019-06-20T12:26:48.927Z,6.83
2019-06-20T12:29:18.717Z,4.00
2019-06-20T12:31:48.560Z,3.40
2019-06-20T12:34:18.184Z,8.67
2019-06-20T12:36:48.592Z,2.70
2019-06-20T12:39:18.718Z,6.17
2019-06-20T12:41:50.087Z,3.37
2019-06-20T12:44:20.087Z,3.23
2019-06-20T12:46:50.696Z,8.60
2019-06-20T12:49:23.731Z,6.87
2019-06-20T12:51:51.832Z,8.37
2019-06-20T12:54:21.783Z,6.90
2019-06-20T12:56:51.404Z,5.40
2019-06-20T12:59:21.167Z,6.50
2019-06-20T13:01:51.135Z,6.63
2019-06-20T13:04:21.231Z,7.90
2019-06-20T13:06:52.046Z,6.37
2019-06-20T13:09:21.689Z,7.30
2019-06-20T13:11:51.383Z,6.53
2019-06-20T13:14:21.028Z,7.27
2019-06-20T13:16:50.671Z,7.53
2019-06-20T13:19:20.348Z,7.23
2019-06-20T13:21:50.218Z,9.03
2019-06-20T13:24:19.909Z,6.60
2019-06-20T13:26:50.787Z,8.57
2019-06-20T13:29:20.864Z,12.77
2019-06-20T13:32:01.933Z,11.00
2019-06-20T13:34:21.812Z,10.70
2019-06-20T13:36:51.740Z,8.97
2019-06-20T13:39:21.455Z,8.40
2019-06-20T13:41:51.138Z,9.97
2019-06-20T13:44:21.771Z,10.93
2019-06-20T13:46:53.247Z,10.67
2019-06-20T13:49:22.874Z,9.33
2019-06-20T13:51:52.515Z,9.25
2019-06-20T13:54:22.161Z,9.45
2019-06-20T13:56:51.863Z,8.13
2019-06-20T13:59:21.870Z,7.62
2019-06-20T14:02:05.935Z,7.27
2019-06-20T14:04:23.018Z,7.40
2019-06-20T14:06:53.878Z,19.48
2019-06-20T14:09:23.666Z,8.70
2019-06-20T14:11:54.198Z,9.18
2019-06-20T14:14:24.244Z,10.17
2019-06-20T14:16:54.078Z,11.60
2019-06-20T14:19:24.036Z,10.20
2019-06-20T14:21:54.331Z,8.80
2019-06-20T14:24:24.055Z,8.33
2019-06-20T14:26:54.548Z,12.20
2019-06-20T14:29:24.477Z,10.03
2019-06-20T14:31:54.093Z,8.80
2019-06-20T14:34:23.726Z,9.13
2019-06-20T14:36:54.017Z,11.60
2019-06-20T14:39:24.733Z,7.50
2019-06-20T14:41:55.237Z,13.25
2019-06-20T14:44:25.096Z,15.43
2019-06-20T14:46:54.736Z,10.68
2019-06-20T14:49:24.455Z,12.33
2019-06-20T14:51:55.125Z,14.00
2019-06-20T14:54:25.360Z,10.85
2019-06-20T14:56:58.075Z,12.67
2019-06-20T14:59:26.337Z,13.00
2019-06-20T15:01:56.049Z,12.98
2019-06-20T15:04:25.679Z,14.10
2019-06-20T15:06:55.310Z,12.88
2019-06-20T15:09:24.965Z,16.32
2019-06-20T15:11:55.143Z,18.05
2019-06-20T15:14:25.294Z,12.00
2019-06-20T15:16:55.420Z,12.43
2019-06-20T15:19:25.623Z,13.25
2019-06-20T15:21:56.553Z,13.50
2019-06-20T15:24:27.587Z,11.30
2019-06-20T15:26:57.220Z,13.03
2019-06-20T15:29:26.875Z,12.03
2019-06-20T15:31:57.001Z,12.00
2019-06-20T15:34:26.691Z,13.75
2019-06-20T15:36:57.690Z,17.27
2019-06-20T15:39:27.529Z,11.33
2019-06-20T15:41:58.237Z,15.32
2019-06-20T15:44:28.179Z,12.13
2019-06-20T15:46:57.815Z,11.37
2019-06-20T15:49:27.485Z,10.65
2019-06-20T15:51:59.131Z,9.50
2019-06-20T15:54:28.953Z,9.78
2019-06-20T15:56:58.566Z,12.73
2019-06-20T15:59:28.199Z,11.78
2019-06-20T16:01:57.926Z,12.18
2019-06-20T16:04:28.855Z,10.08
2019-06-20T16:06:59.758Z,10.30
2019-06-20T16:09:29.355Z,7.45
2019-06-20T16:11:58.983Z,11.45
2019-06-20T16:14:28.593Z,6.20
2019-06-20T16:16:58.757Z,8.20
2019-06-20T16:19:28.442Z,6.28
2019-06-20T16:21:58.054Z,8.18
2019-06-20T16:24:27.690Z,7.67
2019-06-20T16:26:57.297Z,11.40
2019-06-20T16:29:26.928Z,6.47
2019-06-20T16:31:56.550Z,6.58
2019-06-20T16:34:26.261Z,7.35
2019-06-20T16:37:09.283Z,4.37
2019-06-20T16:39:28.327Z,5.97
2019-06-20T16:41:58.043Z,5.40
2019-06-20T16:44:27.811Z,9.23
2019-06-20T16:46:57.530Z,4.10
2019-06-20T16:49:28.212Z,2.90
2019-06-20T16:51:57.921Z,2.00
2019-06-20T16:54:27.567Z,1.85
2019-06-20T16:56:57.208Z,3.40
2019-06-20T16:59:26.823Z,3.72
2019-06-20T17:01:56.596Z,6.62
2019-06-20T17:04:26.385Z,5.42
2019-06-20T17:06:56.029Z,5.72
2019-06-20T17:09:25.919Z,3.42
2019-06-20T17:11:55.614Z,11.30
2019-06-20T17:14:25.227Z,7.27
2019-06-20T17:16:54.847Z,5.07
2019-06-20T17:19:24.463Z,5.75
2019-06-20T17:21:54.183Z,3.27
2019-06-20T17:24:23.816Z,6.07
2019-06-20T17:26:53.450Z,4.13
2019-06-20T17:29:23.052Z,10.17
2019-06-20T17:31:53.002Z,5.93
2019-06-20T17:34:22.776Z,5.47
2019-06-20T17:36:52.491Z,13.47
2019-06-20T17:39:22.103Z,6.97
2019-06-20T17:41:55.195Z,11.07
2019-06-20T17:44:23.106Z,7.30
2019-06-20T17:46:52.788Z,7.30
2019-06-20T17:49:22.406Z,6.13
2019-06-20T17:51:52.033Z,5.37
2019-06-20T17:54:21.739Z,9.10
2019-06-20T17:56:51.377Z,11.67
2019-06-20T17:59:22.857Z,5.33
2019-06-20T18:01:52.531Z,8.50
2019-06-20T18:04:22.234Z,7.80
2019-06-20T18:06:51.856Z,14.97
2019-06-20T18:09:21.473Z,7.93
2019-06-20T18:11:51.175Z,12.03
2019-06-20T18:14:21.074Z,10.00
2019-06-20T18:16:50.702Z,14.90
2019-06-20T18:19:20.328Z,10.20
2019-06-20T18:21:49.954Z,9.73
2019-06-20T18:24:19.632Z,6.43
2019-06-20T18:26:49.287Z,9.60
2019-06-20T18:29:18.999Z,7.03
2019-06-20T18:31:49.797Z,8.57
2019-06-20T18:34:29.692Z,9.70
2019-06-20T18:36:51.102Z,10.90
2019-06-20T18:39:20.756Z,9.07
2019-06-20T18:41:51.355Z,9.03
2019-06-20T18:44:24.085Z,6.73
2019-06-20T18:46:57.024Z,6.83
2019-06-20T18:49:26.771Z,8.00
2019-06-20T18:51:56.407Z,8.67
2019-06-20T18:54:26.006Z,11.40
2019-06-20T18:56:58.636Z,5.07
2019-06-20T18:59:28.314Z,10.20
2019-06-20T19:01:58.004Z,5.83
2019-06-20T19:04:27.640Z,5.57
2019-06-20T19:06:57.410Z,3.53
2019-06-20T19:09:27.069Z,8.63
2019-06-20T19:11:56.949Z,9.73
2019-06-20T19:14:26.915Z,9.93
2019-06-20T19:16:57.114Z,8.13
2019-06-20T19:19:26.765Z,4.87
2019-06-20T19:21:56.427Z,6.57
2019-06-20T19:24:26.091Z,7.00
2019-06-20T19:26:55.765Z,8.90
2019-06-20T19:29:26.448Z,14.93
2019-06-20T19:31:56.138Z,5.57
2019-06-20T19:34:25.805Z,8.53
2019-06-20T19:36:55.465Z,14.10
2019-06-20T19:39:25.159Z,9.37
2019-06-20T19:41:54.807Z,10.87
2019-06-20T19:44:24.422Z,5.07
2019-06-20T19:46:54.134Z,3.97
2019-06-20T19:49:23.734Z,4.87
2019-06-20T19:51:53.422Z,8.10
2019-06-20T19:54:23.194Z,6.03
2019-06-20T19:56:52.866Z,6.47
2019-06-20T19:59:22.554Z,6.23
2019-06-20T20:01:52.259Z,10.90
2019-06-20T20:04:21.936Z,9.20
2019-06-20T20:06:51.637Z,6.50
2019-06-20T20:09:21.495Z,8.37
2019-06-20T20:11:51.196Z,9.63
2019-06-20T20:14:21.166Z,8.00
2019-06-20T20:16:51.063Z,8.20
2019-06-20T20:19:20.873Z,8.07
2019-06-20T20:21:50.524Z,5.87
2019-06-20T20:24:20.426Z,11.33
2019-06-20T20:26:50.054Z,8.97
2019-06-20T20:29:19.652Z,10.57
2019-06-20T20:31:49.319Z,15.50
2019-06-20T20:34:18.926Z,9.73
2019-06-20T20:36:48.535Z,7.37
2019-06-20T20:39:18.240Z,11.27
2019-06-20T20:41:47.830Z,9.40
2019-06-20T20:44:17.471Z,10.33
2019-06-20T20:46:47.098Z,6.77
2019-06-20T20:49:16.694Z,9.40
2019-06-20T20:51:46.311Z,9.37
2019-06-20T20:54:15.938Z,10.97
2019-06-20T20:56:45.572Z,6.33
2019-06-20T20:59:15.187Z,5.67
2019-06-20T21:01:44.875Z,10.87
2019-06-20T21:04:14.490Z,15.93
2019-06-20T21:06:44.153Z,12.00
2019-06-20T21:09:13.777Z,10.17
2019-06-20T21:11:43.394Z,8.77
2019-06-20T21:14:13.982Z,12.50
2019-06-20T21:16:43.584Z,16.07
2019-06-20T21:19:13.190Z,8.20
2019-06-20T21:21:42.851Z,12.97
2019-06-20T21:24:12.523Z,14.03
2019-06-20T21:26:49.394Z,10.77
2019-06-20T21:29:13.490Z,22.50
2019-06-20T21:31:43.147Z,10.17
2019-06-20T21:34:14.087Z,12.33
2019-06-20T21:36:43.726Z,11.83
2019-06-20T21:39:13.424Z,17.23
2019-06-20T21:41:43.031Z,18.30
2019-06-20T21:44:12.669Z,11.20
2019-06-20T21:46:42.656Z,11.07
2019-06-20T21:49:12.270Z,11.03
2019-06-20T21:51:44.648Z,9.67
2019-06-20T21:54:13.214Z,12.93
2019-06-20T21:56:42.930Z,13.63
2019-06-20T21:59:12.564Z,10.97
2019-06-20T22:01:42.305Z,9.67
2019-06-20T22:04:12.261Z,15.67
2019-06-20T22:06:42.118Z,16.47
2019-06-20T22:09:12.515Z,19.30
2019-06-20T22:11:42.553Z,21.63
2019-06-20T22:14:12.237Z,16.97
2019-06-20T22:16:41.842Z,16.23
2019-06-20T22:19:11.447Z,17.07
2019-06-20T22:21:41.231Z,19.77
2019-06-20T22:24:10.842Z,11.50
2019-06-20T22:26:40.570Z,13.37
2019-06-20T22:29:10.175Z,16.13
2019-06-20T22:31:39.801Z,9.77
2019-06-20T22:34:10.591Z,17.13
2019-06-20T22:36:40.827Z,18.27
2019-06-20T22:39:12.190Z,15.03
2019-06-20T22:41:41.793Z,13.97
2019-06-20T22:44:11.407Z,17.73
2019-06-20T22:46:41.100Z,18.57
2019-06-20T22:49:10.739Z,20.67
2019-06-20T22:51:40.416Z,15.60
2019-06-20T22:54:10.099Z,12.43
2019-06-20T22:56:39.792Z,17.00
2019-06-20T22:59:09.415Z,12.67
2019-06-20T23:01:39.035Z,13.27
2019-06-20T23:04:08.734Z,15.97
2019-06-20T23:06:38.403Z,25.00
2019-06-20T23:09:08.556Z,12.63
2019-06-20T23:11:38.239Z,15.07
2019-06-20T23:14:07.924Z,13.63
2019-06-20T23:16:37.627Z,16.23
2019-06-20T23:19:07.325Z,14.60
2019-06-20T23:21:36.958Z,16.07
2019-06-20T23:24:06.658Z,13.03
2019-06-20T23:26:36.275Z,18.47
2019-06-20T23:29:34.370Z,21.60
2019-06-20T23:32:03.994Z,20.87
2019-06-20T23:34:33.595Z,16.23
2019-06-20T23:37:12.858Z,18.53
2019-06-20T23:39:35.595Z,12.37
2019-06-20T23:42:05.288Z,14.23
2019-06-20T23:44:35.154Z,12.97
2019-06-20T23:47:04.933Z,13.73
2019-06-20T23:49:34.734Z,19.67
2019-06-20T23:52:09.782Z,12.17
2019-06-20T23:54:39.401Z,16.57
2019-06-20T23:57:08.998Z,33.20
2019-06-20T23:59:38.646Z,20.47
